Manito, Washington
Current Conditions -  °F | °C
As of 7:53 PM on Monday 22 Dec 2014 (Local Time) from KSFF Reporting Station
Clear Clear  
Wind Chill: 32°   Ceiling: Unl
Heat Index: 32°   Visibility: 10mi
Dew Point: 28°   Wind: 3mph
Humidity: 85%   Direction: 60°ENE
Pressure: 30.32"   Gusts: NA
Location:  47.5876°N, 117.326°W
Report Text: KSFF 230353Z AUTO 06003KT 10SM CLR 00/M02 A3032 RMK AO2 SLP282 T00001022
Loading
Personal Weather Stations






























Interactive Weather Map New forecast layout! Learn more

10-Day Weather Forecast

Advertisements
Track Severe Weather on mobile